Aviation Digital Data Service (ADDS)

Output produced by METARs form (0344 UTC 23 November 2017)
found at http://www.aviationweather.gov/adds/metars/
 
TAF COR KBAB 230053Z 2300/2401 VRB06KT 9999 SCT200 QNH3009INS 
     BECMG 2310/2311 VRB06KT 6000 BR SCT120 QNH3010INS 
     BECMG 2315/2316 VRB06KT 9999 NSW SCT200 QNH3011INS TX15/2300Z TN09/2312Z LAST NO AMDS AFT 2301 NEXT 2711
       
TAF AMD KBAD 220615Z 2206/2308 VRB06KT 9999 SCT025 510052 QNH3011INS 
     BECMG 2208/2209 01006KT 9999 FEW035 SCT250 QNH3017INS 
     BECMG 2211/2212 02012G18KT 9999 FEW250 QNH3023INS 
     TEMPO 2214/2220 02015G25KT 
     BECMG 2300/2301 VRB06KT 9999 FEW250 510053 QNH3020INS TX17/2220Z TN07/2211Z LAST NO AMDS AFT 2206 NEXT 2710
       
KBAF 222332Z 2300/2324 34014G22KT P6SM SCT060 
     FM230400 33010KT P6SM SKC 
     FM230800 32006KT P6SM SKC
       
KBBD 222321Z 2300/2324 01004KT P6SM SCT250 AMD NOT SKED
       
KBBG 222323Z 2300/2324 00000KT P6SM SKC 
     FM231500 25006KT P6SM SKC
       
KBCB 222320Z 2300/2324 33008KT P6SM SCT250 
     FM230300 VRB04KT P6SM SCT250
       
KBCE 222320Z 2300/2324 14007KT P6SM SKC 
     FM230200 28006KT P6SM SKC 
     FM231900 18009KT P6SM SKC
       
KBDL 230306Z 2303/2406 33010G16KT P6SM BKN035 
     FM230600 33010KT P6SM SCT250 
     FM230900 32006KT P6SM SKC 
     FM240100 26004KT P6SM SCT200
       
KBDR 230239Z 2303/2324 33010KT P6SM SCT070 
     FM230400 32007KT P6SM SKC 
     FM231700 29007KT P6SM FEW250
       
KBED 222332Z 2300/2324 31012G24KT P6SM BKN050 
     FM230200 31010KT P6SM SKC 
     FM230800 31006KT P6SM SKC
       
KBFD 230329Z 2303/2324 32008KT P6SM VCSH OVC025 
     FM231300 24007KT P6SM BKN035
       
KBFF 222322Z 2300/2324 28010KT P6SM SCT200 
     FM230700 32005KT P6SM BKN250
       
KBFI 222333Z 2300/2324 VRB03KT P6SM BKN050 BKN100 
     FM230800 19010G17KT P6SM -RA OVC030 
     FM232300 19012G22KT P6SM VCSH BKN040 BKN050
       
KBFL 222320Z 2300/2324 VRB04KT 5SM HZ SKC 
     FM231300 VRB03KT 1SM BR SKC 
     FM231800 VRB04KT 4SM HZ SKC
       
KBFM 222320Z 2300/2324 35011KT P6SM SCT250
       
KBGM 222321Z 2300/2324 32013G20KT P6SM -SN BKN025 OVC040 
     FM230300 31009KT P6SM BKN025 OVC035 
     FM231300 29005KT P6SM BKN070 
     FM231900 23007KT P6SM SCT100
       
KBGR 222321Z 2300/2324 35013KT 6SM -RA BR OVC035 
     FM230200 33010KT P6SM BKN008 
     FM230300 33010KT P6SM BKN003 
     FM230400 32010G18KT P6SM VCSH BKN025 
     FM230500 32010G18KT P6SM SCT070 
     FM231700 30007KT P6SM FEW250
       
KBHB 222321Z 2300/2324 35005KT P6SM -RA OVC005 
     FM230200 33013G22KT P6SM VCSH OVC010 
     FM230300 33014G23KT P6SM VCSH BKN008 
     FM230500 32015G24KT P6SM BKN020 
     FM230600 32015G25KT P6SM SCT060 
     FM232100 28006KT P6SM SCT250
       
KBHM 222334Z 2300/2324 36004KT P6SM SKC 
     FM231400 01006KT P6SM SCT025
       
TAF KBIF 222205Z 2222/2404 VRB06KT 9999 SCT250 QNH3025INS TX20/2223Z TN04/2313Z
       
KBIH 222320Z 2300/2324 17005KT P6SM FEW250 
     FM230400 33005KT P6SM SCT250 
     FM232000 17007KT P6SM SCT250
       
KBIL 222330Z 2300/2324 24015KT P6SM SCT100 BKN200
       
KBIS 222326Z 2300/2324 34008KT P6SM SKC 
     FM231600 22004KT P6SM SCT200
       
TAF AMD KBIX 230243Z 2302/2408 01009KT 9999 BKN200 QNH3003INS 
     BECMG 2311/2312 01009KT 9999 SKC QNH2996INS 
     BECMG 2402/2403 01009KT 9999 FEW200 QNH2999INS TX17/2321Z TN07/2312Z LAST NO AMDS AFT 2305 NEXT 2411
       
KBJC 230100Z 2301/2324 28013KT P6SM SCT120 BKN220 
     FM230300 26011KT P6SM FEW120 BKN220
       
KBJI 222337Z 2300/2324 18008KT P6SM SCT040 BKN060 
     FM230200 VRB04KT P6SM SCT040 
     FM231500 17008KT P6SM SCT035 BKN100
       
KBKE 222320Z 2300/2324 12010KT P6SM SCT060 BKN100 
     FM230300 11006KT P6SM VCSH OVC050 
     FM230600 12006KT P6SM OVC100 
     FM232200 13011KT P6SM VCSH OVC050
       
TAF KBKF 230104Z 2301/2407 30009KT 9999 FEW100 BKN200 QNH3024INS 
     BECMG 2302/2303 20009KT 9999 SCT100 BKN200 QNH3014INS 
     BECMG 2318/2319 30009KT 9999 FEW100 BKN200 QNH3000INS TX18/2321Z TN04/2312Z
       
KBKW 230300Z 2303/2324 34004KT P6SM FEW035 
     FM231500 28007KT P6SM SCT200 
     FM232000 31006KT P6SM SCT100
       
KBLF 222320Z 2300/2324 VRB04KT P6SM SCT250
       
KBLH 222320Z 2300/2324 03007KT P6SM SKC 
     FM230200 33005KT P6SM SKC 
     FM231500 VRB04KT P6SM SKC
       
KBLI 222333Z 2300/2324 16020G30KT P6SM -SHRA SCT030 OVC090 
     FM230500 17012G19KT 5SM -RA OVC035 
     FM232200 18011G18KT P6SM VCSH BKN035 BKN050
       
TAF KBLV 230000Z 2300/2406 34009KT 9999 FEW200 QNH2997INS WND 18009KT AFT 2306 TX12/2321Z TNM04/2312Z
       
KBMG 222327Z 2300/2324 33003KT P6SM BKN250 
     FM231600 21006KT P6SM SCT120 AMD LTD TO CLD VIS AND WIND 2302/2314
       
KBMI 222335Z 2300/2324 21006KT P6SM BKN250 
     FM230400 20007KT P6SM BKN120 
     FM230900 20009KT P6SM BKN080 
     FM231200 21011KT P6SM SCT100 
     FM231500 22012KT P6SM SKC
       
KBNA 222320Z 2300/2324 01008KT P6SM SKC 
     FM230300 35003KT P6SM SKC
       
KBNO 222320Z 2300/2324 VRB05KT P6SM SCT100 BKN200 
     FM231800 20005KT P6SM OVC050 
     FM232000 22012G20KT P6SM OVC100
       
KBOI 222320Z 2300/2324 13006KT P6SM SCT100 BKN200 
     FM231800 14008KT P6SM OVC050
       
KBOS 230305Z 2303/2406 31017G25KT P6SM SCT040 
     FM230700 30011G21KT P6SM FEW250 
     FM231500 31006KT P6SM SKC 
     FM231900 27008KT P6SM SCT250
       
KBPI 230106Z 2301/2324 VRB05KT 2SM BR SCT002 
     FM230300 VRB05KT 1/2SM FG VV002 
     FM231400 05005KT P6SM VCFG SCT005 BKN040 BKN150 
     FM231700 10006KT P6SM SCT040 SCT150
       
KBPK 222321Z 2300/2324 VRB03KT P6SM SKC 
     FM231300 20005KT P6SM SKC 
     FM231800 26006KT P6SM SKC
       
KBPT 222325Z 2300/2324 34012KT P6SM SKC 
     FM230100 35004KT P6SM SKC 
     FM231500 03006KT P6SM SKC
       
KBRD 230155Z 2302/2324 16007KT P6SM VCSH OVC050 
     FM230300 15005KT P6SM VCSH BKN045 
     FM230800 29004KT P6SM BKN070 
     FM231900 19008KT P6SM SCT140
       
KBRL 222320Z 2300/2324 18006KT P6SM OVC150 
     FM231500 27006KT P6SM SKC
       
KBRO 222332Z 2300/2324 33007KT P6SM FEW250
       
KBTL 222330Z 2300/2324 16003KT P6SM FEW035 
     FM230200 22006KT P6SM BKN040 
     FM231900 24009KT P6SM SCT140
       
KBTM 222325Z 2300/2324 VRB03KT P6SM SKC 
     FM231600 21010G16KT P6SM FEW080 
     FM231900 24015G22KT P6SM FEW080
       
KBTR 222321Z 2300/2324 36007KT P6SM SKC
       
KBTV 230228Z 2302/2324 30010G20KT P6SM SCT020 OVC050 
     TEMPO 2302/2306 BKN020 
     FM230600 30007KT P6SM BKN050 
     FM231000 32006KT P6SM SCT050 
     FM231600 25005KT P6SM SCT120
       
KBUF 230301Z 2303/2324 26007KT P6SM SCT035 SCT250 
     FM230800 24004KT P6SM BKN050 
     FM231500 22010KT 2SM -SN OVC025 
     FM231700 23012G18KT P6SM VCSH OVC025 
     FM231900 23015G26KT P6SM OVC035
       
KBUR 222338Z 2300/2324 VRB04KT P6SM SKC
       
KBVI 222332Z 2300/2324 32004KT P6SM BKN035 
     FM230400 VRB04KT P6SM SCT250 AMD NOT SKED 2302/2312
       
KBVO 222325Z 2300/2324 18003KT P6SM SCT250
       
KBWG 222320Z 2300/2324 VRB03KT P6SM SKC
       
KBWI 222333Z 2300/2406 29009KT P6SM SKC 
     FM230400 32006KT P6SM SKC 
     FM232100 26005KT P6SM SKC
       
KBYI 222323Z 2300/2324 VRB03KT P6SM FEW060 FEW250 
     FM230600 07010KT P6SM FEW200 
     FM231600 VRB05KT P6SM SCT060 BKN140 BKN180 
     FM232200 25015KT P6SM BKN070 BKN120 OVC160
       
KBZN 222340Z 2300/2406 18008KT P6SM SCT070 BKN120 
     FM230500 18008KT P6SM BKN150 
     FM231900 23015G25KT P6SM BKN150 
     FM240500 23015G25KT P6SM VCSH BKN060